Terminal Aerodrome Forecast
Issued by NWS

Home | Current Version | Previous Version | Text Only | Print | Product List | Glossary On
Versions: 1 2 3 4 5 6 7 8 9 10 11 12 13 14
000
FTUS45 KRIW 011125
TAFCPR
TAF
KCPR 011125Z 0112/0212 21015KT P6SM SKC
     FM011800 22014G24KT P6SM FEW090
     FM020000 21011G21KT P6SM VCTS SCT090CB
     FM020400 21008KT P6SM SCT100=

USA.gov is the U.S. government's official web portal to all federal, state and local government web resources and services.